Time;durP1;ratioP1;P1;durP2;ratioP2;P2;SDS_P1;SDS_P2;PMS_P1;PMS_P2;Temp;Humidity;BMP_temperature;BMP_pressure;BME280_temperature;BME280_humidity;BME280_pressure;Samples;Min_cycle;Max_cycle;Signal;HPM_P1;HPM_P2
2023/07/26 00:01:47;;;;;;;7.32;3.40;;;;;;;;;;5096736;28;20042;-75
2023/07/26 00:04:12;;;;;;;5.90;3.25;;;;;;;;;;5061507;28;20020;-75
2023/07/26 00:06:38;;;;;;;12.65;3.22;;;;;;;;;;5078289;28;20048;-75
2023/07/26 00:09:03;;;;;;;7.25;3.65;;;;;;;;;;5077840;28;20792;-75
2023/07/26 00:11:29;;;;;;;10.98;4.07;;;;;;;;;;5082507;28;20030;-76
2023/07/26 00:13:54;;;;;;;4.95;2.83;;;;;;;;;;5108590;28;20015;-75
2023/07/26 00:16:19;;;;;;;7.55;3.28;;;;;;;;;;5115987;28;20034;-75
2023/07/26 00:18:45;;;;;;;6.78;3.13;;;;;;;;;;5115937;28;20019;-75
2023/07/26 00:21:10;;;;;;;7.45;3.40;;;;;;;;;;5116338;28;20469;-75
2023/07/26 00:23:35;;;;;;;6.30;2.70;;;;;;;;;;5098219;28;20041;-75
2023/07/26 00:26:01;;;;;;;8.90;3.10;;;;;;;;;;5116069;28;20061;-75
2023/07/26 00:28:26;;;;;;;6.32;3.13;;;;;;;;;;5098106;28;20055;-75
2023/07/26 00:30:52;;;;;;;6.65;2.90;;;;;;;;;;5116353;28;20031;-75
2023/07/26 00:33:17;;;;;;;7.75;3.90;;;;;;;;;;5116023;28;20116;-75
2023/07/26 00:35:43;;;;;;;7.82;3.10;;;;;;;;;;5116183;28;20039;-75
2023/07/26 00:38:09;;;;;;;5.95;2.85;;;;;;;;;;5097953;28;20020;-75
2023/07/26 00:40:35;;;;;;;6.13;3.33;;;;;;;;;;5115529;28;20088;-75
2023/07/26 00:43:01;;;;;;;5.80;3.47;;;;;;;;;;5097832;28;20024;-75
2023/07/26 00:45:27;;;;;;;4.00;3.10;;;;;;;;;;5115883;28;20053;-75
2023/07/26 00:47:53;;;;;;;8.48;3.58;;;;;;;;;;5097807;28;20024;-75
2023/07/26 00:50:18;;;;;;;6.57;3.38;;;;;;;;;;5097712;28;20107;-75
2023/07/26 00:52:44;;;;;;;7.68;2.88;;;;;;;;;;5097595;28;20035;-75
2023/07/26 00:55:09;;;;;;;5.85;2.35;;;;;;;;;;5095919;28;20472;-75
2023/07/26 00:57:35;;;;;;;9.98;3.10;;;;;;;;;;5114693;28;20030;-75
2023/07/26 01:00:01;;;;;;;6.97;3.63;;;;;;;;;;5114679;28;20047;-75
2023/07/26 01:02:26;;;;;;;5.43;3.65;;;;;;;;;;5096422;28;20038;-75
2023/07/26 01:04:52;;;;;;;7.57;3.63;;;;;;;;;;5114520;28;20473;-75
2023/07/26 01:07:24;;;;;;;8.68;3.25;;;;;;;;;;5095749;28;20533;-75
2023/07/26 01:10:04;;;;;;;5.20;3.63;;;;;;;;;;5096203;28;20024;-75
2023/07/26 01:12:33;;;;;;;5.97;3.42;;;;;;;;;;5095842;28;20145;-75
2023/07/26 01:15:03;;;;;;;9.07;2.97;;;;;;;;;;5096162;28;20450;-75
2023/07/26 01:17:29;;;;;;;5.30;3.10;;;;;;;;;;5095883;28;20039;-75
2023/07/26 01:19:56;;;;;;;7.00;2.97;;;;;;;;;;5101981;28;20093;-75
2023/07/26 01:22:21;;;;;;;8.23;2.95;;;;;;;;;;5093812;28;20103;-75
2023/07/26 01:24:46;;;;;;;6.53;3.63;;;;;;;;;;5085504;28;20590;-75
2023/07/26 01:27:11;;;;;;;5.88;2.97;;;;;;;;;;5084292;28;20115;-75
2023/07/26 01:29:37;;;;;;;5.70;3.13;;;;;;;;;;5093446;28;20023;-75
2023/07/26 01:32:02;;;;;;;4.55;2.42;;;;;;;;;;5093331;28;20051;-75
2023/07/26 01:34:28;;;;;;;6.88;2.72;;;;;;;;;;5097196;28;20026;-75
2023/07/26 01:36:53;;;;;;;10.55;2.90;;;;;;;;;;5095002;28;20046;-75
2023/07/26 01:39:19;;;;;;;8.20;3.00;;;;;;;;;;5094299;28;20077;-75
2023/07/26 01:41:46;;;;;;;3.97;2.35;;;;;;;;;;5086353;28;20055;-75
2023/07/26 01:44:12;;;;;;;7.43;3.22;;;;;;;;;;5093751;28;20028;-75
2023/07/26 01:46:37;;;;;;;7.63;2.22;;;;;;;;;;5113144;28;20034;-75
2023/07/26 01:49:02;;;;;;;7.05;3.22;;;;;;;;;;5113756;28;20016;-75
2023/07/26 01:51:27;;;;;;;4.03;2.60;;;;;;;;;;5095219;28;20472;-75
2023/07/26 01:53:53;;;;;;;3.92;2.13;;;;;;;;;;5077156;28;1041592;-75
2023/07/26 01:56:18;;;;;;;5.22;2.53;;;;;;;;;;5111199;28;20019;-75
2023/07/26 01:58:44;;;;;;;5.38;2.17;;;;;;;;;;5094196;28;20035;-75
2023/07/26 02:01:09;;;;;;;6.40;2.53;;;;;;;;;;5077574;28;20028;-75
2023/07/26 02:03:35;;;;;;;8.30;2.33;;;;;;;;;;5094010;28;20048;-75
2023/07/26 02:06:00;;;;;;;6.00;2.47;;;;;;;;;;5058304;28;20096;-75
2023/07/26 02:08:25;;;;;;;6.82;2.05;;;;;;;;;;5088570;28;20556;-75
2023/07/26 02:10:51;;;;;;;6.05;2.08;;;;;;;;;;5093761;28;20024;-75
2023/07/26 02:13:16;;;;;;;3.90;1.85;;;;;;;;;;5093107;28;20028;-75
2023/07/26 02:15:41;;;;;;;3.75;1.95;;;;;;;;;;5110212;28;20020;-75
2023/07/26 02:18:07;;;;;;;6.72;2.60;;;;;;;;;;5114015;28;20073;-75
2023/07/26 02:20:32;;;;;;;5.70;2.17;;;;;;;;;;5113995;28;20484;-75
2023/07/26 02:22:58;;;;;;;3.85;2.00;;;;;;;;;;5078952;28;20019;-75
2023/07/26 02:25:24;;;;;;;4.60;2.00;;;;;;;;;;5094797;28;20057;-75
2023/07/26 02:27:49;;;;;;;3.22;1.75;;;;;;;;;;5096299;28;20385;-75
2023/07/26 02:30:14;;;;;;;5.32;1.70;;;;;;;;;;5113866;28;20028;-75
2023/07/26 02:32:39;;;;;;;2.95;1.67;;;;;;;;;;5095631;28;20413;-75
2023/07/26 02:35:05;;;;;;;3.83;1.60;;;;;;;;;;5113340;28;20021;-75
2023/07/26 02:37:30;;;;;;;5.85;2.10;;;;;;;;;;5113738;28;20030;-75
2023/07/26 02:39:56;;;;;;;4.53;1.80;;;;;;;;;;5095378;28;20431;-75
2023/07/26 02:42:21;;;;;;;3.70;1.80;;;;;;;;;;5104147;28;20032;-75
2023/07/26 02:44:47;;;;;;;7.65;2.38;;;;;;;;;;5075281;28;20019;-75
2023/07/26 02:47:12;;;;;;;3.05;1.92;;;;;;;;;;5074736;28;20031;-75
2023/07/26 02:49:38;;;;;;;4.20;1.80;;;;;;;;;;5093586;28;20030;-75
2023/07/26 02:52:03;;;;;;;5.05;2.10;;;;;;;;;;5095255;28;20039;-75
2023/07/26 02:54:28;;;;;;;4.90;1.88;;;;;;;;;;5113270;28;20069;-75
2023/07/26 02:56:54;;;;;;;2.88;2.10;;;;;;;;;;5113387;28;20027;-75
2023/07/26 02:59:19;;;;;;;3.22;1.90;;;;;;;;;;5113289;28;20076;-76
2023/07/26 03:01:44;;;;;;;6.72;2.08;;;;;;;;;;5094957;28;20102;-75
2023/07/26 03:04:10;;;;;;;6.18;1.83;;;;;;;;;;5112902;28;20909;-75
2023/07/26 03:06:36;;;;;;;6.03;2.22;;;;;;;;;;5095331;28;20016;-75
2023/07/26 03:09:01;;;;;;;3.50;1.75;;;;;;;;;;5094948;28;20027;-75
2023/07/26 03:11:26;;;;;;;5.25;1.92;;;;;;;;;;5095137;28;20110;-75
2023/07/26 03:13:52;;;;;;;3.15;2.05;;;;;;;;;;5112450;28;20473;-75
2023/07/26 03:16:17;;;;;;;5.45;2.13;;;;;;;;;;5113268;28;20024;-75
2023/07/26 03:18:43;;;;;;;3.67;1.90;;;;;;;;;;5113231;28;20576;-75
2023/07/26 03:21:08;;;;;;;3.53;2.13;;;;;;;;;;5113109;28;20513;-75
2023/07/26 03:23:34;;;;;;;3.60;2.03;;;;;;;;;;5095107;28;20051;-75
2023/07/26 03:26:00;;;;;;;6.45;2.33;;;;;;;;;;5112950;28;20027;-75
2023/07/26 03:28:26;;;;;;;7.22;2.10;;;;;;;;;;5094787;28;20103;-75
2023/07/26 03:30:52;;;;;;;3.28;1.90;;;;;;;;;;5094916;28;20024;-75
2023/07/26 03:33:17;;;;;;;5.20;2.88;;;;;;;;;;5095031;28;20043;-75
2023/07/26 03:35:42;;;;;;;4.45;1.80;;;;;;;;;;5112235;28;20392;-75
2023/07/26 03:38:08;;;;;;;3.78;2.40;;;;;;;;;;5095038;28;20035;-75
2023/07/26 03:40:33;;;;;;;9.85;2.30;;;;;;;;;;5095055;28;20057;-75
2023/07/26 03:42:58;;;;;;;6.03;1.98;;;;;;;;;;5094910;28;20103;-75
2023/07/26 03:45:26;;;;;;;7.60;2.03;;;;;;;;;;5112996;28;20040;-75
2023/07/26 03:47:52;;;;;;;6.30;2.55;;;;;;;;;;5078519;28;20508;-75
2023/07/26 03:50:17;;;;;;;7.35;2.50;;;;;;;;;;5112157;28;20036;-75
2023/07/26 03:52:42;;;;;;;4.90;2.38;;;;;;;;;;5112762;28;20027;-75
2023/07/26 03:55:08;;;;;;;4.07;2.00;;;;;;;;;;5115772;22;20051;-76
2023/07/26 03:57:33;;;;;;;4.07;2.40;;;;;;;;;;5074473;28;20512;-76
2023/07/26 03:59:58;;;;;;;9.02;2.33;;;;;;;;;;5096346;28;20465;-76
2023/07/26 04:02:23;;;;;;;4.95;2.33;;;;;;;;;;5098709;28;20522;-78
2023/07/26 04:04:49;;;;;;;5.63;2.10;;;;;;;;;;5099433;28;20027;-78
2023/07/26 04:07:14;;;;;;;8.20;2.50;;;;;;;;;;5099835;28;20031;-79
2023/07/26 04:09:39;;;;;;;4.57;2.15;;;;;;;;;;5099997;28;20081;-79
2023/07/26 04:12:05;;;;;;;5.32;2.13;;;;;;;;;;5117934;28;20473;-78
2023/07/26 04:14:30;;;;;;;8.13;2.22;;;;;;;;;;5117642;28;20023;-78
2023/07/26 04:16:55;;;;;;;4.45;2.35;;;;;;;;;;5062626;28;20056;-78
2023/07/26 04:19:21;;;;;;;6.53;2.10;;;;;;;;;;5097827;28;20016;-78
2023/07/26 04:21:46;;;;;;;4.03;1.85;;;;;;;;;;5075401;28;20394;-76
2023/07/26 04:24:11;;;;;;;6.18;2.30;;;;;;;;;;5067952;28;20020;-76
2023/07/26 04:26:37;;;;;;;8.95;2.20;;;;;;;;;;5098653;28;20478;-76
2023/07/26 04:29:02;;;;;;;5.50;1.98;;;;;;;;;;5094507;28;20055;-76
2023/07/26 04:31:27;;;;;;;4.40;2.28;;;;;;;;;;5083190;28;20020;-76
2023/07/26 04:33:52;;;;;;;6.82;2.35;;;;;;;;;;5095773;28;20093;-76
2023/07/26 04:36:18;;;;;;;7.38;2.35;;;;;;;;;;5095416;28;20031;-76
2023/07/26 04:38:43;;;;;;;4.03;1.75;;;;;;;;;;5060851;28;20031;-76
2023/07/26 04:41:08;;;;;;;7.40;2.15;;;;;;;;;;5077500;28;20028;-76
2023/07/26 04:43:34;;;;;;;4.57;1.95;;;;;;;;;;5099614;28;20012;-76
2023/07/26 04:45:59;;;;;;;3.83;2.00;;;;;;;;;;5115896;28;20106;-76
2023/07/26 04:48:24;;;;;;;3.65;1.70;;;;;;;;;;5115675;28;20082;-76
2023/07/26 04:50:50;;;;;;;3.65;1.70;;;;;;;;;;5097752;28;20057;-76
2023/07/26 04:53:16;;;;;;;9.05;2.53;;;;;;;;;;5094827;28;20022;-76
2023/07/26 04:55:46;;;;;;;4.25;1.83;;;;;;;;;;5056774;28;20397;-76
2023/07/26 04:58:12;;;;;;;6.25;2.33;;;;;;;;;;5093820;28;20036;-76
2023/07/26 05:00:38;;;;;;;5.97;1.95;;;;;;;;;;5074511;28;20108;-76
2023/07/26 05:03:04;;;;;;;3.50;1.90;;;;;;;;;;5077254;28;20023;-76
2023/07/26 05:05:29;;;;;;;3.63;1.63;;;;;;;;;;5074063;28;20029;-76
2023/07/26 05:07:55;;;;;;;8.02;2.58;;;;;;;;;;5075636;28;20386;-76
2023/07/26 05:10:20;;;;;;;6.25;1.83;;;;;;;;;;5073202;28;20041;-76
2023/07/26 05:12:45;;;;;;;3.58;2.20;;;;;;;;;;5087789;28;20020;-76
2023/07/26 05:15:11;;;;;;;4.93;1.88;;;;;;;;;;5076682;28;20388;-76
2023/07/26 05:17:36;;;;;;;5.75;2.40;;;;;;;;;;5070406;28;20023;-76
2023/07/26 05:20:01;;;;;;;5.60;1.92;;;;;;;;;;5115330;28;20024;-76
2023/07/26 05:22:27;;;;;;;6.88;2.10;;;;;;;;;;5106772;28;20021;-76
2023/07/26 05:24:52;;;;;;;4.30;1.90;;;;;;;;;;5094733;28;20419;-76
2023/07/26 05:27:17;;;;;;;4.43;2.20;;;;;;;;;;5076250;28;20035;-76
2023/07/26 05:29:43;;;;;;;4.15;2.47;;;;;;;;;;5093543;28;20026;-76
2023/07/26 05:32:08;;;;;;;4.95;3.08;;;;;;;;;;5075688;28;20483;-75
2023/07/26 05:34:35;;;;;;;6.95;2.15;;;;;;;;;;5094501;28;20028;-76
2023/07/26 05:37:00;;;;;;;5.78;2.00;;;;;;;;;;5076653;28;20107;-76
2023/07/26 05:39:26;;;;;;;5.40;1.70;;;;;;;;;;5087416;28;20060;-78
2023/07/26 05:41:51;;;;;;;6.25;2.00;;;;;;;;;;5092724;28;20103;-78
2023/07/26 05:44:16;;;;;;;6.45;1.88;;;;;;;;;;5077395;28;20427;-78
2023/07/26 05:46:41;;;;;;;3.78;2.00;;;;;;;;;;5073978;28;20032;-78
2023/07/26 05:49:09;;;;;;;7.93;1.88;;;;;;;;;;5074887;28;20048;-78
2023/07/26 05:51:34;;;;;;;3.08;2.13;;;;;;;;;;5084397;28;20058;-78
2023/07/26 05:54:00;;;;;;;5.57;2.05;;;;;;;;;;5097532;28;21329;-78
2023/07/26 05:56:25;;;;;;;5.13;2.22;;;;;;;;;;5097418;28;20020;-78
2023/07/26 05:58:50;;;;;;;5.30;1.77;;;;;;;;;;5097717;28;20023;-78
2023/07/26 06:01:16;;;;;;;4.30;1.70;;;;;;;;;;5096922;28;20059;-77
2023/07/26 06:03:42;;;;;;;3.63;1.52;;;;;;;;;;5101467;28;20432;-78
2023/07/26 06:06:08;;;;;;;7.78;1.70;;;;;;;;;;5093946;28;20436;-78
2023/07/26 06:08:33;;;;;;;2.45;1.63;;;;;;;;;;5094739;28;20022;-78
2023/07/26 06:10:58;;;;;;;6.80;1.92;;;;;;;;;;5091630;28;20030;-78
2023/07/26 06:13:23;;;;;;;8.27;1.63;;;;;;;;;;5115005;28;20111;-78
2023/07/26 06:15:49;;;;;;;9.30;2.17;;;;;;;;;;5099562;28;20023;-78
2023/07/26 06:18:15;;;;;;;6.13;1.65;;;;;;;;;;5094284;28;20393;-78
2023/07/26 06:20:40;;;;;;;3.92;1.80;;;;;;;;;;5087335;28;20040;-78
2023/07/26 06:23:06;;;;;;;4.95;1.65;;;;;;;;;;5074179;28;20016;-78
2023/07/26 06:25:32;;;;;;;2.72;1.75;;;;;;;;;;5061446;28;20107;-75
2023/07/26 06:27:57;;;;;;;3.58;1.65;;;;;;;;;;5095502;28;20537;-76
2023/07/26 06:30:23;;;;;;;3.92;1.48;;;;;;;;;;5107912;28;20023;-77
2023/07/26 06:32:49;;;;;;;4.20;1.95;;;;;;;;;;5114101;28;20468;-76
2023/07/26 06:35:15;;;;;;;3.85;1.52;;;;;;;;;;5095574;28;20103;-76
2023/07/26 06:37:40;;;;;;;7.72;1.60;;;;;;;;;;5095724;28;20059;-76
2023/07/26 06:40:06;;;;;;;8.25;1.70;;;;;;;;;;5105722;28;20025;-77
2023/07/26 06:42:32;;;;;;;6.78;1.80;;;;;;;;;;5054820;28;20024;-76
2023/07/26 06:44:57;;;;;;;4.03;2.00;;;;;;;;;;5054963;28;20024;-76
2023/07/26 06:47:23;;;;;;;5.03;1.42;;;;;;;;;;5112293;28;20022;-76
2023/07/26 06:49:48;;;;;;;4.30;2.75;;;;;;;;;;5095404;28;20035;-76
2023/07/26 06:52:14;;;;;;;5.45;1.52;;;;;;;;;;5081772;28;20070;-76
2023/07/26 06:54:40;;;;;;;3.65;1.90;;;;;;;;;;5072892;28;20082;-76
2023/07/26 06:57:06;;;;;;;5.93;2.15;;;;;;;;;;5077803;28;20020;-76
2023/07/26 06:59:31;;;;;;;5.43;1.40;;;;;;;;;;5075265;28;20020;-76
2023/07/26 07:01:56;;;;;;;3.72;1.60;;;;;;;;;;5058048;28;20020;-76
2023/07/26 07:04:22;;;;;;;6.57;1.30;;;;;;;;;;5057842;28;20055;-76
2023/07/26 07:06:47;;;;;;;2.80;1.33;;;;;;;;;;5076100;28;20544;-79
2023/07/26 07:09:12;;;;;;;3.72;1.42;;;;;;;;;;5075485;28;20111;-77
2023/07/26 07:11:38;;;;;;;4.97;1.40;;;;;;;;;;5075264;28;20076;-76
2023/07/26 07:14:03;;;;;;;7.85;1.98;;;;;;;;;;5092055;28;20052;-75
2023/07/26 07:16:29;;;;;;;5.80;1.63;;;;;;;;;;5075526;28;20103;-78
2023/07/26 07:18:54;;;;;;;5.18;1.83;;;;;;;;;;5077141;28;20366;-77
2023/07/26 07:21:20;;;;;;;6.95;1.40;;;;;;;;;;5078339;28;20043;-78
2023/07/26 07:23:46;;;;;;;3.33;1.48;;;;;;;;;;5077157;28;20059;-78
2023/07/26 07:26:11;;;;;;;8.80;1.98;;;;;;;;;;5060739;28;20056;-78
2023/07/26 07:28:37;;;;;;;2.10;1.65;;;;;;;;;;5076723;28;20496;-79
2023/07/26 07:31:02;;;;;;;4.22;1.67;;;;;;;;;;5079007;28;20039;-79
2023/07/26 07:33:27;;;;;;;6.07;2.65;;;;;;;;;;5077825;28;20020;-78
2023/07/26 07:35:53;;;;;;;10.50;2.20;;;;;;;;;;5101724;28;20023;-79
2023/07/26 07:38:18;;;;;;;2.65;1.80;;;;;;;;;;5087015;28;20047;-79
2023/07/26 07:40:44;;;;;;;3.67;1.77;;;;;;;;;;5084431;28;20059;-78
2023/07/26 07:43:09;;;;;;;5.18;1.45;;;;;;;;;;5059074;28;20061;-76
2023/07/26 07:45:41;;;;;;;6.45;2.00;;;;;;;;;;5078889;28;20040;-77
2023/07/26 07:48:06;;;;;;;2.58;1.30;;;;;;;;;;5077170;28;20069;-77
2023/07/26 07:50:32;;;;;;;2.58;1.40;;;;;;;;;;5098899;28;20020;-77
2023/07/26 07:52:57;;;;;;;5.07;1.02;;;;;;;;;;5116697;28;20393;-76
2023/07/26 07:55:22;;;;;;;2.10;1.10;;;;;;;;;;5098822;28;20047;-76
2023/07/26 07:57:48;;;;;;;3.78;1.50;;;;;;;;;;5063523;28;20029;-76
2023/07/26 08:00:13;;;;;;;3.25;1.33;;;;;;;;;;5074632;28;20024;-75
2023/07/26 08:02:39;;;;;;;3.00;1.23;;;;;;;;;;5077956;28;20046;-75
2023/07/26 08:05:04;;;;;;;4.82;1.48;;;;;;;;;;5077432;28;20393;-76
2023/07/26 08:07:30;;;;;;;4.97;1.85;;;;;;;;;;5077939;28;20031;-75
2023/07/26 08:09:55;;;;;;;4.43;1.60;;;;;;;;;;5078158;28;20016;-76
2023/07/26 08:12:20;;;;;;;2.53;1.42;;;;;;;;;;5077945;28;20142;-76
2023/07/26 08:14:52;;;;;;;4.60;1.60;;;;;;;;;;5076995;28;20015;-75
2023/07/26 08:17:17;;;;;;;3.35;1.60;;;;;;;;;;5077753;28;20028;-75
2023/07/26 08:19:46;;;;;;;3.80;1.83;;;;;;;;;;5077908;28;20035;-75
2023/07/26 08:22:11;;;;;;;4.85;1.42;;;;;;;;;;5077072;28;20611;-76
2023/07/26 08:24:36;;;;;;;2.92;1.35;;;;;;;;;;5051104;28;20064;-76
2023/07/26 08:27:02;;;;;;;5.15;1.40;;;;;;;;;;5088337;28;20100;-75
2023/07/26 08:29:28;;;;;;;4.32;1.38;;;;;;;;;;5092775;28;20093;-75
2023/07/26 08:31:53;;;;;;;4.13;1.90;;;;;;;;;;5060312;28;20470;-75
2023/07/26 08:34:18;;;;;;;4.75;1.45;;;;;;;;;;5104965;28;20025;-76
2023/07/26 08:36:44;;;;;;;2.00;1.30;;;;;;;;;;5074848;28;20032;-76
2023/07/26 08:39:09;;;;;;;3.72;1.30;;;;;;;;;;5077733;28;20397;-77
2023/07/26 08:41:34;;;;;;;5.82;1.98;;;;;;;;;;5077849;28;20028;-74
2023/07/26 08:44:01;;;;;;;4.10;1.35;;;;;;;;;;5058209;28;20024;-80
2023/07/26 08:46:27;;;;;;;5.35;1.70;;;;;;;;;;5058292;28;20024;-81
2023/07/26 08:48:53;;;;;;;4.68;1.52;;;;;;;;;;5060577;28;20032;-80
2023/07/26 08:51:20;;;;;;;4.25;1.80;;;;;;;;;;5060915;28;20024;-75
2023/07/26 08:53:47;;;;;;;5.38;2.15;;;;;;;;;;5077094;28;20031;-75
2023/07/26 08:56:14;;;;;;;6.28;2.13;;;;;;;;;;5077310;28;20028;-75
2023/07/26 08:58:39;;;;;;;6.05;1.77;;;;;;;;;;5077257;28;20020;-75
2023/07/26 09:01:05;;;;;;;3.58;1.73;;;;;;;;;;5076344;28;20032;-75
2023/07/26 09:03:31;;;;;;;2.97;1.50;;;;;;;;;;5077385;28;20051;-72
2023/07/26 09:06:06;;;;;;;6.05;1.73;;;;;;;;;;5076998;28;20544;-72
2023/07/26 09:08:31;;;;;;;3.38;1.52;;;;;;;;;;5077186;28;20031;-72
2023/07/26 09:10:57;;;;;;;3.28;1.60;;;;;;;;;;5076086;28;20393;-72
2023/07/26 09:13:22;;;;;;;5.53;1.63;;;;;;;;;;5060028;28;20056;-71
2023/07/26 09:15:49;;;;;;;5.43;1.92;;;;;;;;;;5094960;28;20107;-71
2023/07/26 09:18:14;;;;;;;3.60;1.50;;;;;;;;;;5076928;28;20024;-75
2023/07/26 09:20:40;;;;;;;2.38;1.52;;;;;;;;;;5076172;28;20069;-75
2023/07/26 09:23:05;;;;;;;3.10;1.42;;;;;;;;;;5076933;28;20396;-75
2023/07/26 09:25:37;;;;;;;1.87;1.00;;;;;;;;;;5094468;28;20074;-75
2023/07/26 09:28:03;;;;;;;4.90;1.55;;;;;;;;;;5076781;28;20742;-75
2023/07/26 09:30:29;;;;;;;1.60;1.15;;;;;;;;;;5076426;28;20024;-75
2023/07/26 09:32:56;;;;;;;2.53;1.30;;;;;;;;;;5094562;28;20025;-74
2023/07/26 09:35:21;;;;;;;4.47;1.27;;;;;;;;;;5093732;28;20020;-75
2023/07/26 09:37:47;;;;;;;3.25;1.20;;;;;;;;;;5094568;28;20407;-75
2023/07/26 09:40:12;;;;;;;3.47;1.67;;;;;;;;;;5059548;28;20027;-75
2023/07/26 09:42:43;;;;;;;2.40;1.33;;;;;;;;;;5076536;28;20359;-72
2023/07/26 09:45:14;;;;;;;11.23;1.83;;;;;;;;;;5076149;28;20024;-72
2023/07/26 09:47:39;;;;;;;2.38;1.33;;;;;;;;;;5084034;28;20023;-72
2023/07/26 09:50:05;;;;;;;3.42;1.50;;;;;;;;;;5114248;28;20102;-72
2023/07/26 09:52:31;;;;;;;5.10;1.60;;;;;;;;;;5096023;28;20506;-72
2023/07/26 09:54:58;;;;;;;2.88;1.45;;;;;;;;;;5112408;22;20457;-73
2023/07/26 09:57:23;;;;;;;3.53;1.35;;;;;;;;;;5073339;28;20459;-71
2023/07/26 09:59:49;;;;;;;4.75;1.33;;;;;;;;;;5076385;28;20016;-71
2023/07/26 10:02:15;;;;;;;5.07;1.60;;;;;;;;;;5093989;28;20024;-71
2023/07/26 10:04:49;;;;;;;3.20;1.70;;;;;;;;;;5094173;28;20047;-71
2023/07/26 10:07:14;;;;;;;5.80;1.77;;;;;;;;;;5055516;28;20082;-71
2023/07/26 10:09:43;;;;;;;3.45;1.35;;;;;;;;;;5057597;28;20016;-72
2023/07/26 10:12:09;;;;;;;1.90;1.20;;;;;;;;;;5073217;28;20031;-72
2023/07/26 10:14:35;;;;;;;3.50;1.15;;;;;;;;;;5055481;28;20103;-71
2023/07/26 10:17:03;;;;;;;7.95;1.60;;;;;;;;;;5073060;28;20028;-71
2023/07/26 10:19:31;;;;;;;2.20;1.38;;;;;;;;;;5073595;28;20043;-72
2023/07/26 10:21:57;;;;;;;2.92;1.02;;;;;;;;;;5055916;28;20142;-71
2023/07/26 10:24:23;;;;;;;2.80;1.23;;;;;;;;;;5055002;28;20095;-71
2023/07/26 10:26:49;;;;;;;2.00;1.23;;;;;;;;;;5053908;28;20029;-72
2023/07/26 10:29:15;;;;;;;4.03;1.38;;;;;;;;;;5055750;28;20024;-71
2023/07/26 10:31:41;;;;;;;5.25;1.73;;;;;;;;;;5055214;28;20059;-71
2023/07/26 10:34:09;;;;;;;3.30;2.10;;;;;;;;;;5039538;28;20021;-71
2023/07/26 10:36:36;;;;;;;1.80;1.25;;;;;;;;;;5053039;28;20035;-72
2023/07/26 10:39:07;;;;;;;5.75;1.65;;;;;;;;;;5052153;28;20024;-71
2023/07/26 10:41:34;;;;;;;2.88;1.42;;;;;;;;;;5035408;28;20031;-72
2023/07/26 10:44:04;;;;;;;4.07;1.45;;;;;;;;;;5035364;28;20025;-71
2023/07/26 10:46:29;;;;;;;3.08;1.50;;;;;;;;;;5051429;28;20052;-72
2023/07/26 10:48:54;;;;;;;2.97;1.50;;;;;;;;;;5053414;28;20386;-71
2023/07/26 10:51:21;;;;;;;7.53;1.52;;;;;;;;;;5053487;28;20021;-71
2023/07/26 10:53:47;;;;;;;4.13;1.50;;;;;;;;;;5035361;28;20021;-71
2023/07/26 10:56:19;;;;;;;5.50;1.50;;;;;;;;;;5051758;28;20491;-72
2023/07/26 10:58:54;;;;;;;3.63;1.42;;;;;;;;;;5051543;28;20548;-72
2023/07/26 11:01:41;;;;;;;4.03;1.48;;;;;;;;;;5051832;28;20033;-71
2023/07/26 11:04:15;;;;;;;4.65;1.83;;;;;;;;;;5052969;28;20047;-71
2023/07/26 11:07:07;;;;;;;4.63;2.13;;;;;;;;;;5051459;28;20024;-72
2023/07/26 11:09:33;;;;;;;6.88;1.50;;;;;;;;;;5032561;28;20028;-71
2023/07/26 11:12:03;;;;;;;3.13;1.42;;;;;;;;;;5035445;28;20025;-72
2023/07/26 11:14:33;;;;;;;3.80;1.25;;;;;;;;;;5052984;28;20028;-72
2023/07/26 11:17:02;;;;;;;6.22;1.83;;;;;;;;;;5052838;28;20108;-72
2023/07/26 11:19:29;;;;;;;2.13;1.33;;;;;;;;;;5035137;28;20017;-73
2023/07/26 11:22:06;;;;;;;3.60;1.52;;;;;;;;;;5052803;28;20017;-72
2023/07/26 11:24:32;;;;;;;2.65;1.45;;;;;;;;;;5052901;28;20021;-73
2023/07/26 11:27:03;;;;;;;3.00;1.58;;;;;;;;;;5052733;28;20099;-73
2023/07/26 11:29:28;;;;;;;3.42;1.70;;;;;;;;;;5051193;28;20070;-73
2023/07/26 11:31:53;;;;;;;4.07;1.50;;;;;;;;;;5034908;28;20025;-73
2023/07/26 11:34:22;;;;;;;3.83;1.90;;;;;;;;;;5053109;28;20017;-73
2023/07/26 11:36:47;;;;;;;5.95;2.10;;;;;;;;;;5052933;28;20488;-73
2023/07/26 11:39:20;;;;;;;3.20;1.80;;;;;;;;;;5052128;28;20044;-72
2023/07/26 11:41:45;;;;;;;7.88;1.67;;;;;;;;;;5051564;28;20029;-73
2023/07/26 11:44:12;;;;;;;3.10;1.50;;;;;;;;;;5051494;28;20017;-73
2023/07/26 11:46:38;;;;;;;3.75;1.63;;;;;;;;;;5034693;28;20032;-73
2023/07/26 11:49:03;;;;;;;5.25;1.60;;;;;;;;;;5052584;28;20398;-73
2023/07/26 11:51:32;;;;;;;6.25;1.80;;;;;;;;;;5051416;28;20028;-73
2023/07/26 11:53:58;;;;;;;4.05;1.77;;;;;;;;;;5050766;28;20066;-73
2023/07/26 11:56:30;;;;;;;4.00;1.75;;;;;;;;;;5051092;28;20119;-73
2023/07/26 11:58:58;;;;;;;3.85;1.73;;;;;;;;;;5051207;28;20525;-73
2023/07/26 12:01:24;;;;;;;6.28;1.90;;;;;;;;;;5034241;28;20028;-73
2023/07/26 12:03:50;;;;;;;4.57;2.03;;;;;;;;;;5034903;28;20020;-73
2023/07/26 12:06:16;;;;;;;4.10;2.25;;;;;;;;;;5051028;28;20043;-73
2023/07/26 12:08:41;;;;;;;4.88;1.75;;;;;;;;;;5051236;28;20510;-73
2023/07/26 12:11:07;;;;;;;4.78;1.63;;;;;;;;;;5052450;28;20376;-73
2023/07/26 12:13:33;;;;;;;4.43;1.70;;;;;;;;;;5033832;28;20028;-73
2023/07/26 12:16:00;;;;;;;3.78;1.58;;;;;;;;;;5034355;28;20032;-73
2023/07/26 12:18:26;;;;;;;4.10;1.85;;;;;;;;;;5034607;28;20493;-73
2023/07/26 12:21:02;;;;;;;3.03;1.55;;;;;;;;;;5035171;28;20068;-73
2023/07/26 12:23:54;;;;;;;5.38;1.15;;;;;;;;;;5054132;28;20047;-72
2023/07/26 12:26:24;;;;;;;1.77;1.40;;;;;;;;;;5054702;28;20021;-72
2023/07/26 12:28:51;;;;;;;4.72;1.42;;;;;;;;;;5055859;28;20025;-72
2023/07/26 12:31:27;;;;;;;2.38;1.60;;;;;;;;;;5037920;28;20518;-71
2023/07/26 12:33:57;;;;;;;5.30;2.45;;;;;;;;;;5054533;28;20017;-71
2023/07/26 12:36:30;;;;;;;4.25;2.00;;;;;;;;;;5055166;28;20035;-72
2023/07/26 12:38:56;;;;;;;1.30;1.02;;;;;;;;;;5038148;28;20107;-72
2023/07/26 12:41:25;;;;;;;2.63;1.77;;;;;;;;;;5054211;28;20024;-72
2023/07/26 12:43:54;;;;;;;6.32;1.55;;;;;;;;;;5037667;28;20013;-72
2023/07/26 12:46:19;;;;;;;6.22;1.52;;;;;;;;;;5037421;28;20116;-72
2023/07/26 12:48:45;;;;;;;3.35;1.40;;;;;;;;;;5037571;28;20486;-72
2023/07/26 12:51:10;;;;;;;6.38;1.80;;;;;;;;;;5054210;28;20029;-72
2023/07/26 12:53:35;;;;;;;5.03;1.65;;;;;;;;;;5055292;28;20181;-72
2023/07/26 12:56:00;;;;;;;4.15;1.60;;;;;;;;;;5055145;28;20510;-71
2023/07/26 12:58:26;;;;;;;2.65;1.67;;;;;;;;;;5054691;28;20108;-72
2023/07/26 13:00:51;;;;;;;3.38;1.60;;;;;;;;;;5055237;28;20395;-72
2023/07/26 13:03:17;;;;;;;5.22;2.00;;;;;;;;;;5055257;28;20363;-72
2023/07/26 13:05:42;;;;;;;3.03;1.85;;;;;;;;;;5053710;28;20025;-73
2023/07/26 13:08:08;;;;;;;3.63;1.95;;;;;;;;;;5055039;28;20028;-72
2023/07/26 13:10:33;;;;;;;6.57;2.53;;;;;;;;;;5055109;28;20028;-73
2023/07/26 13:12:58;;;;;;;4.60;1.70;;;;;;;;;;5054902;28;20021;-72
2023/07/26 13:15:24;;;;;;;4.88;1.90;;;;;;;;;;5055423;28;20021;-73
2023/07/26 13:17:50;;;;;;;3.85;1.45;;;;;;;;;;5053106;28;20106;-72
2023/07/26 13:20:16;;;;;;;7.63;1.92;;;;;;;;;;5037112;28;20063;-73
2023/07/26 13:22:42;;;;;;;4.35;1.42;;;;;;;;;;5053587;28;20072;-73
2023/07/26 13:25:08;;;;;;;5.20;3.15;;;;;;;;;;5036815;28;20032;-73
2023/07/26 13:27:34;;;;;;;7.63;2.03;;;;;;;;;;5036910;28;20501;-73
2023/07/26 13:30:00;;;;;;;5.20;2.17;;;;;;;;;;5054619;28;20036;-73
2023/07/26 13:32:25;;;;;;;5.03;2.22;;;;;;;;;;5035276;28;20470;-73
2023/07/26 13:34:51;;;;;;;9.68;2.20;;;;;;;;;;5054457;28;20112;-73
2023/07/26 13:37:16;;;;;;;9.77;2.17;;;;;;;;;;5054490;28;20028;-73
2023/07/26 13:39:44;;;;;;;7.25;2.50;;;;;;;;;;5054504;28;20032;-73
2023/07/26 13:42:09;;;;;;;5.10;1.90;;;;;;;;;;5054441;28;20051;-72
2023/07/26 13:44:36;;;;;;;6.97;2.67;;;;;;;;;;5063855;28;20013;-72
2023/07/26 13:47:01;;;;;;;2.22;1.58;;;;;;;;;;5080518;28;20020;-73
2023/07/26 13:49:26;;;;;;;3.38;1.83;;;;;;;;;;5073889;28;20028;-71
2023/07/26 13:51:51;;;;;;;2.03;1.30;;;;;;;;;;5078700;28;20486;-72
2023/07/26 13:54:17;;;;;;;4.50;1.65;;;;;;;;;;5071024;28;20466;-72
2023/07/26 13:56:42;;;;;;;1.83;1.13;;;;;;;;;;5053343;28;20037;-72
2023/07/26 13:59:07;;;;;;;3.60;1.30;;;;;;;;;;5053902;28;20051;-72
2023/07/26 14:01:34;;;;;;;4.35;1.60;;;;;;;;;;5054260;28;20021;-72
2023/07/26 14:03:59;;;;;;;5.68;1.75;;;;;;;;;;5056991;28;20025;-73
2023/07/26 14:06:25;;;;;;;4.35;1.60;;;;;;;;;;5077723;28;20020;-73
2023/07/26 14:08:51;;;;;;;3.75;1.35;;;;;;;;;;5072442;28;20017;-73
2023/07/26 14:11:16;;;;;;;3.85;1.92;;;;;;;;;;5074159;28;20039;-78
2023/07/26 14:13:41;;;;;;;5.35;1.80;;;;;;;;;;5077009;28;20100;-76
2023/07/26 14:16:07;;;;;;;7.80;1.85;;;;;;;;;;5058808;28;20082;-77
2023/07/26 14:18:32;;;;;;;5.95;1.95;;;;;;;;;;5058549;28;20119;-77
2023/07/26 14:20:58;;;;;;;2.92;1.58;;;;;;;;;;5075255;28;20024;-77
2023/07/26 14:23:23;;;;;;;3.95;1.90;;;;;;;;;;5061116;28;20019;-77
2023/07/26 14:25:49;;;;;;;4.03;1.85;;;;;;;;;;5077293;28;20029;-77
2023/07/26 14:28:14;;;;;;;4.70;1.80;;;;;;;;;;5077242;28;20043;-77
2023/07/26 14:30:40;;;;;;;2.78;1.70;;;;;;;;;;5069603;28;20075;-77
2023/07/26 14:33:05;;;;;;;3.72;1.75;;;;;;;;;;5075964;28;20034;-76
2023/07/26 14:35:30;;;;;;;4.20;1.95;;;;;;;;;;5074822;28;20035;-77
2023/07/26 14:37:56;;;;;;;5.03;2.05;;;;;;;;;;5093682;28;20405;-77